createdAt,value
2018-10-07T00:00:03.999Z,10.76
2018-10-07T00:01:03.998Z,10.72
2018-10-07T00:02:03.985Z,10.69
2018-10-07T00:03:03.976Z,10.69
2018-10-07T00:04:04.016Z,10.76
2018-10-07T00:05:03.998Z,10.95
2018-10-07T00:06:03.940Z,11.19
2018-10-07T00:07:03.912Z,11.24
2018-10-07T00:08:03.911Z,11.20
2018-10-07T00:09:03.889Z,11.69
2018-10-07T00:10:03.901Z,11.67
2018-10-07T00:11:03.887Z,12.05
2018-10-07T00:12:03.859Z,12.49
2018-10-07T00:13:03.862Z,12.74
2018-10-07T00:14:03.850Z,12.95
2018-10-07T00:15:03.859Z,13.25
2018-10-07T00:16:03.843Z,13.39
2018-10-07T00:17:03.809Z,13.57
2018-10-07T00:18:03.801Z,13.50
2018-10-07T00:19:03.790Z,13.55
2018-10-07T00:20:03.793Z,13.71
2018-10-07T00:21:03.767Z,13.68
2018-10-07T00:22:03.752Z,13.69
2018-10-07T00:23:03.774Z,13.63
2018-10-07T00:24:03.753Z,13.66
2018-10-07T00:25:03.749Z,13.59
2018-10-07T00:26:03.731Z,13.68
2018-10-07T00:27:03.702Z,13.79
2018-10-07T00:28:03.699Z,13.94
2018-10-07T00:29:03.674Z,13.99
2018-10-07T00:30:03.699Z,13.90
2018-10-07T00:31:03.653Z,13.83
2018-10-07T00:32:03.638Z,13.63
2018-10-07T00:33:03.634Z,13.59
2018-10-07T00:34:03.638Z,13.22
2018-10-07T00:35:03.698Z,12.95
2018-10-07T00:36:03.599Z,12.84
2018-10-07T00:37:03.614Z,12.59
2018-10-07T00:38:03.582Z,12.34
2018-10-07T00:39:03.626Z,12.16
2018-10-07T00:40:03.585Z,12.03
2018-10-07T00:41:03.572Z,12.13
2018-10-07T00:42:03.563Z,12.16
2018-10-07T00:43:03.575Z,12.31
2018-10-07T00:44:03.519Z,12.26
2018-10-07T00:45:03.569Z,12.18
2018-10-07T00:46:03.516Z,12.07
2018-10-07T00:47:03.519Z,12.04
2018-10-07T00:48:03.479Z,11.90
2018-10-07T00:49:03.506Z,11.67
2018-10-07T00:50:03.469Z,11.62
2018-10-07T00:51:03.434Z,11.66
2018-10-07T00:52:03.423Z,11.54
2018-10-07T00:53:03.417Z,11.54
2018-10-07T00:54:03.409Z,11.42
2018-10-07T00:55:03.422Z,11.38
2018-10-07T00:56:03.439Z,11.30
2018-10-07T00:57:03.417Z,11.23
2018-10-07T00:58:03.362Z,11.23
2018-10-07T00:59:03.362Z,11.09
2018-10-07T01:00:03.359Z,10.95
2018-10-07T01:01:03.330Z,10.94
2018-10-07T01:02:03.340Z,10.84
2018-10-07T01:03:03.311Z,10.87
2018-10-07T01:04:03.311Z,10.83
2018-10-07T01:05:03.295Z,10.88
2018-10-07T01:06:03.271Z,10.81
2018-10-07T01:07:03.279Z,10.84
2018-10-07T01:08:03.272Z,10.86
2018-10-07T01:09:03.237Z,10.94
2018-10-07T01:10:03.249Z,10.95
2018-10-07T01:11:03.217Z,10.99
2018-10-07T01:12:03.206Z,11.06
2018-10-07T01:13:03.199Z,11.01
2018-10-07T01:14:03.219Z,11.11
2018-10-07T01:15:03.243Z,11.12
2018-10-07T01:16:03.207Z,11.27
2018-10-07T01:17:03.152Z,11.24
2018-10-07T01:18:03.153Z,11.28
2018-10-07T01:19:03.148Z,11.35
2018-10-07T01:20:03.153Z,11.39
2018-10-07T01:21:03.140Z,11.46
2018-10-07T01:22:03.143Z,11.57
2018-10-07T01:23:03.126Z,11.49
2018-10-07T01:24:03.155Z,11.46
2018-10-07T01:25:03.100Z,11.59
2018-10-07T01:26:03.078Z,11.62
2018-10-07T01:27:03.057Z,11.63
2018-10-07T01:28:03.067Z,11.63
2018-10-07T01:29:03.090Z,11.60
2018-10-07T01:30:03.054Z,11.56
2018-10-07T01:31:03.025Z,11.53
2018-10-07T01:32:03.025Z,11.42
2018-10-07T01:33:02.981Z,11.42
2018-10-07T01:34:02.992Z,11.39
2018-10-07T01:35:02.990Z,11.51
2018-10-07T01:36:02.962Z,11.36
2018-10-07T01:37:02.956Z,11.42
2018-10-07T01:38:02.927Z,11.35
2018-10-07T01:39:02.918Z,11.31
2018-10-07T01:40:02.942Z,11.27
2018-10-07T01:41:02.913Z,11.26
2018-10-07T01:42:02.891Z,11.19
2018-10-07T01:43:02.921Z,11.09
2018-10-07T01:44:02.887Z,11.08
2018-10-07T01:45:02.906Z,11.03
2018-10-07T01:46:02.892Z,11.11
2018-10-07T01:47:02.866Z,11.21
2018-10-07T01:48:02.838Z,11.19
2018-10-07T01:49:02.832Z,11.12
2018-10-07T01:50:02.842Z,11.02
2018-10-07T01:51:02.802Z,11.01
2018-10-07T01:52:02.872Z,10.95
2018-10-07T01:53:02.788Z,11.06
2018-10-07T01:54:02.774Z,10.95
2018-10-07T01:55:02.807Z,10.94
2018-10-07T01:56:02.763Z,11.06
2018-10-07T01:57:02.781Z,11.20
2018-10-07T01:58:02.777Z,11.27
2018-10-07T01:59:02.730Z,11.17
2018-10-07T02:00:02.724Z,11.13
2018-10-07T02:01:02.691Z,11.23
2018-10-07T02:02:02.689Z,11.26
2018-10-07T02:03:02.673Z,11.23
2018-10-07T02:04:02.673Z,11.20
2018-10-07T02:05:02.691Z,11.12
2018-10-07T02:06:02.631Z,11.02
2018-10-07T02:07:02.667Z,11.06
2018-10-07T02:08:02.614Z,10.90
2018-10-07T02:09:02.664Z,10.81
2018-10-07T02:10:02.665Z,10.86
2018-10-07T02:11:02.593Z,10.78
2018-10-07T02:12:02.591Z,10.78
2018-10-07T02:13:02.576Z,10.65
2018-10-07T02:14:02.726Z,10.69
2018-10-07T02:15:02.560Z,10.66
2018-10-07T02:16:02.594Z,10.60
2018-10-07T02:17:02.748Z,10.63
2018-10-07T02:18:02.500Z,10.57
2018-10-07T02:19:02.502Z,10.69
2018-10-07T02:20:02.552Z,10.70
2018-10-07T02:21:02.530Z,10.93
2018-10-07T02:22:02.472Z,11.08
2018-10-07T02:23:02.461Z,11.26
2018-10-07T02:24:02.490Z,11.57
2018-10-07T02:25:02.462Z,11.60
2018-10-07T02:26:02.415Z,11.64
2018-10-07T02:27:02.429Z,11.62
2018-10-07T02:28:02.394Z,11.67
2018-10-07T02:29:02.383Z,11.64
2018-10-07T02:30:02.427Z,11.69
2018-10-07T02:31:02.366Z,11.90
2018-10-07T02:32:02.351Z,12.03
2018-10-07T02:33:02.340Z,12.00
2018-10-07T02:34:02.335Z,12.01
2018-10-07T02:35:02.355Z,11.97
2018-10-07T02:36:02.324Z,11.82
2018-10-07T02:37:02.308Z,11.72
2018-10-07T02:38:02.308Z,11.59
2018-10-07T02:39:02.286Z,11.60
2018-10-07T02:40:02.424Z,11.35
2018-10-07T02:41:02.285Z,11.35
2018-10-07T02:42:02.265Z,11.26
2018-10-07T02:43:02.258Z,11.16
2018-10-07T02:44:02.227Z,11.09
2018-10-07T02:45:02.247Z,10.98
2018-10-07T02:46:02.204Z,10.94
2018-10-07T02:47:02.191Z,10.90
2018-10-07T02:48:02.199Z,10.91
2018-10-07T02:49:02.189Z,10.75
2018-10-07T02:50:02.191Z,10.75
2018-10-07T02:51:02.186Z,10.78
2018-10-07T02:52:02.165Z,10.66
2018-10-07T02:53:02.227Z,10.62
2018-10-07T02:54:02.129Z,10.57
2018-10-07T02:55:02.184Z,10.66
2018-10-07T02:56:02.104Z,10.52
2018-10-07T02:57:02.101Z,10.49
2018-10-07T02:58:02.113Z,10.46
2018-10-07T02:59:02.085Z,10.51
2018-10-07T03:00:02.125Z,10.32
2018-10-07T03:01:02.051Z,10.43
2018-10-07T03:02:02.090Z,10.32
2018-10-07T03:03:02.078Z,10.24
2018-10-07T03:04:02.032Z,10.18
2018-10-07T03:05:02.021Z,10.09
2018-10-07T03:06:02.021Z,10.10
2018-10-07T03:07:02.018Z,10.01
2018-10-07T03:08:01.971Z,10.16
2018-10-07T03:09:02.003Z,10.04
2018-10-07T03:10:02.049Z,9.81
2018-10-07T03:11:01.991Z,9.88
2018-10-07T03:12:01.969Z,9.89
2018-10-07T03:13:01.928Z,9.91
2018-10-07T03:14:01.931Z,9.89
2018-10-07T03:15:01.927Z,9.75
2018-10-07T03:16:01.961Z,9.85
2018-10-07T03:17:01.916Z,9.91
2018-10-07T03:18:01.904Z,9.86
2018-10-07T03:19:01.911Z,9.83
2018-10-07T03:20:01.879Z,9.89
2018-10-07T03:21:01.882Z,9.68
2018-10-07T03:22:01.857Z,9.73
2018-10-07T03:23:01.835Z,9.74
2018-10-07T03:24:01.849Z,9.77
2018-10-07T03:25:01.842Z,9.74
2018-10-07T03:26:01.793Z,9.96
2018-10-07T03:27:01.795Z,10.20
2018-10-07T03:28:01.764Z,10.20
2018-10-07T03:29:01.769Z,10.11
2018-10-07T03:30:01.740Z,10.02
2018-10-07T03:31:01.777Z,10.06
2018-10-07T03:32:01.739Z,10.01
2018-10-07T03:33:01.721Z,9.99
2018-10-07T03:34:01.709Z,9.85
2018-10-07T03:35:01.701Z,9.99
2018-10-07T03:36:01.694Z,10.02
2018-10-07T03:37:01.667Z,9.92
2018-10-07T03:38:01.714Z,9.99
2018-10-07T03:39:01.693Z,10.11
2018-10-07T03:40:01.657Z,10.36
2018-10-07T03:41:01.657Z,10.25
2018-10-07T03:42:01.665Z,10.18
2018-10-07T03:43:01.624Z,10.35
2018-10-07T03:44:01.590Z,10.25
2018-10-07T03:45:01.621Z,10.44
2018-10-07T03:46:01.618Z,10.35
2018-10-07T03:47:01.552Z,10.34
2018-10-07T03:48:01.591Z,10.31
2018-10-07T03:49:01.547Z,10.26
2018-10-07T03:50:01.530Z,10.14
2018-10-07T03:51:01.535Z,10.22
2018-10-07T03:52:01.514Z,10.17
2018-10-07T03:53:01.481Z,10.24
2018-10-07T03:54:01.485Z,10.22
2018-10-07T03:55:01.515Z,10.14
2018-10-07T03:56:01.486Z,10.17
2018-10-07T03:57:01.442Z,10.09
2018-10-07T03:58:01.451Z,10.07
2018-10-07T03:59:01.420Z,10.09
2018-10-07T04:00:01.416Z,9.88
2018-10-07T04:01:01.457Z,9.98
2018-10-07T04:02:01.386Z,9.99
2018-10-07T04:03:01.377Z,9.95
2018-10-07T04:04:01.366Z,9.93
2018-10-07T04:05:01.353Z,9.88
2018-10-07T04:06:01.375Z,9.89
2018-10-07T04:07:01.361Z,9.88
2018-10-07T04:08:01.321Z,10.01
2018-10-07T04:09:01.309Z,10.09
2018-10-07T04:10:01.314Z,10.14
2018-10-07T04:11:01.301Z,10.17
2018-10-07T04:12:01.277Z,10.42
2018-10-07T04:13:01.279Z,10.62
2018-10-07T04:14:01.274Z,10.68
2018-10-07T04:15:01.275Z,10.73
2018-10-07T04:16:01.253Z,10.91
2018-10-07T04:17:01.225Z,10.88
2018-10-07T04:18:01.212Z,10.88
2018-10-07T04:19:01.206Z,10.78
2018-10-07T04:20:01.203Z,10.76
2018-10-07T04:21:01.216Z,10.73
2018-10-07T04:22:01.171Z,10.69
2018-10-07T04:23:01.166Z,10.68
2018-10-07T04:24:01.149Z,10.66
2018-10-07T04:25:01.137Z,10.44
2018-10-07T04:26:01.141Z,10.47
2018-10-07T04:27:01.138Z,10.62
2018-10-07T04:28:01.108Z,10.68
2018-10-07T04:29:01.094Z,10.72
2018-10-07T04:30:01.084Z,10.81
2018-10-07T04:31:01.089Z,11.03
2018-10-07T04:32:01.062Z,11.27
2018-10-07T04:33:01.080Z,11.45
2018-10-07T04:34:01.042Z,11.48
2018-10-07T04:35:01.031Z,11.60
2018-10-07T04:36:01.037Z,11.56
2018-10-07T04:37:01.009Z,11.63
2018-10-07T04:38:01.000Z,11.60
2018-10-07T04:39:01.011Z,11.57
2018-10-07T04:40:01.040Z,11.54
2018-10-07T04:41:00.982Z,11.57
2018-10-07T04:42:00.955Z,11.62
2018-10-07T04:43:00.944Z,11.57
2018-10-07T04:44:00.940Z,11.53
2018-10-07T04:45:00.922Z,11.46
2018-10-07T04:46:00.967Z,11.41
2018-10-07T04:47:00.901Z,11.36
2018-10-07T04:48:00.893Z,11.21
2018-10-07T04:49:00.882Z,11.12
2018-10-07T04:50:00.883Z,11.08
2018-10-07T04:51:00.872Z,10.95
2018-10-07T04:52:00.861Z,10.78
2018-10-07T04:53:00.862Z,10.86
2018-10-07T04:54:00.839Z,10.91
2018-10-07T04:55:00.819Z,10.78
2018-10-07T04:56:00.819Z,10.75
2018-10-07T04:57:00.794Z,10.75
2018-10-07T04:58:00.782Z,10.66
2018-10-07T04:59:00.791Z,10.68
2018-10-07T05:00:00.823Z,10.60
2018-10-07T05:01:00.849Z,10.60
2018-10-07T05:02:00.744Z,10.54
2018-10-07T05:03:00.741Z,10.66
2018-10-07T05:04:00.748Z,10.72
2018-10-07T05:05:00.746Z,10.91
2018-10-07T05:06:00.741Z,11.17
2018-10-07T05:07:00.701Z,11.51
2018-10-07T05:08:00.699Z,11.63
2018-10-07T05:09:00.723Z,11.77
2018-10-07T05:10:00.680Z,11.78
2018-10-07T05:11:00.657Z,11.94
2018-10-07T05:12:00.678Z,11.79
2018-10-07T05:13:00.642Z,11.81
2018-10-07T05:14:00.633Z,11.75
2018-10-07T05:15:00.617Z,11.66
2018-10-07T05:16:00.604Z,11.53
2018-10-07T05:17:00.585Z,11.57
2018-10-07T05:18:00.584Z,11.48
2018-10-07T05:19:00.564Z,11.53
2018-10-07T05:20:00.578Z,11.54
2018-10-07T05:21:00.658Z,11.45
2018-10-07T05:22:00.571Z,11.35
2018-10-07T05:23:00.562Z,11.35
2018-10-07T05:24:00.551Z,11.26
2018-10-07T05:25:00.538Z,11.09
2018-10-07T05:26:00.548Z,11.08
2018-10-07T05:27:00.503Z,10.94
2018-10-07T05:28:00.528Z,10.83
2018-10-07T05:29:00.495Z,10.81
2018-10-07T05:30:00.471Z,10.88
2018-10-07T05:31:00.520Z,10.94
2018-10-07T05:32:00.453Z,10.87
2018-10-07T05:33:00.429Z,10.86
2018-10-07T05:34:00.494Z,10.87
2018-10-07T05:35:00.405Z,10.88
2018-10-07T05:36:00.400Z,11.16
2018-10-07T05:37:00.393Z,11.30
2018-10-07T05:38:00.354Z,11.56
2018-10-07T05:39:00.363Z,11.63
2018-10-07T05:40:00.370Z,11.64
2018-10-07T05:41:00.326Z,11.54
2018-10-07T05:42:00.359Z,11.48
2018-10-07T05:43:00.301Z,11.38
2018-10-07T05:44:00.291Z,11.33
2018-10-07T05:45:00.296Z,11.26
2018-10-07T05:46:00.288Z,11.31
2018-10-07T05:47:00.297Z,11.36
2018-10-07T05:48:00.256Z,11.48
2018-10-07T05:49:00.249Z,11.35
2018-10-07T05:50:00.240Z,11.30
2018-10-07T05:51:00.235Z,11.35
2018-10-07T05:52:00.241Z,11.33
2018-10-07T05:53:00.264Z,11.27
2018-10-07T05:54:00.201Z,11.21
2018-10-07T05:55:00.193Z,11.17
2018-10-07T05:56:00.193Z,11.03
2018-10-07T05:57:00.163Z,10.91
2018-10-07T05:58:00.182Z,10.93
2018-10-07T05:59:00.132Z,10.78
2018-10-07T06:00:00.118Z,10.69
2018-10-07T06:01:00.143Z,10.60
2018-10-07T06:02:00.189Z,10.70
2018-10-07T06:03:00.133Z,10.69
2018-10-07T06:04:00.102Z,10.66
2018-10-07T06:05:00.078Z,10.78
2018-10-07T06:06:00.075Z,10.84
2018-10-07T06:07:00.079Z,10.87
2018-10-07T06:08:00.057Z,11.03
2018-10-07T06:09:00.050Z,11.28
2018-10-07T06:10:00.043Z,11.42
2018-10-07T06:11:00.002Z,11.46
2018-10-07T06:12:00.020Z,11.48
2018-10-07T06:13:00.025Z,11.57
2018-10-07T06:14:00.026Z,11.64
2018-10-07T06:15:00.065Z,11.62
2018-10-07T06:16:00.025Z,11.66
2018-10-07T06:16:59.994Z,11.78
2018-10-07T06:17:59.983Z,11.96
2018-10-07T06:18:59.952Z,12.05
2018-10-07T06:19:59.945Z,12.26
2018-10-07T06:20:59.953Z,12.37
2018-10-07T06:21:59.939Z,12.52
2018-10-07T06:22:59.912Z,12.58
2018-10-07T06:23:59.889Z,12.56
2018-10-07T06:24:59.873Z,12.59
2018-10-07T06:25:59.841Z,12.51
2018-10-07T06:26:59.869Z,12.56
2018-10-07T06:27:59.817Z,12.56
2018-10-07T06:28:59.807Z,12.51
2018-10-07T06:29:59.902Z,12.58
2018-10-07T06:30:59.811Z,12.59
2018-10-07T06:31:59.787Z,12.63
2018-10-07T06:32:59.764Z,12.77
2018-10-07T06:33:59.751Z,12.98
2018-10-07T06:34:59.741Z,13.21
2018-10-07T06:35:59.750Z,13.25
2018-10-07T06:36:59.746Z,13.41
2018-10-07T06:37:59.784Z,13.57
2018-10-07T06:38:59.711Z,13.75
2018-10-07T06:39:59.770Z,13.90
2018-10-07T06:40:59.718Z,14.01
2018-10-07T06:41:59.691Z,14.29
2018-10-07T06:42:59.683Z,14.52
2018-10-07T06:43:59.683Z,14.85
2018-10-07T06:44:59.677Z,15.31
2018-10-07T06:45:59.758Z,15.81
2018-10-07T06:46:59.651Z,16.23
2018-10-07T06:47:59.632Z,16.32
2018-10-07T06:48:59.613Z,16.51
2018-10-07T06:49:59.591Z,16.82
2018-10-07T06:50:59.644Z,17.06
2018-10-07T06:51:59.604Z,17.47
2018-10-07T06:52:59.592Z,17.71
2018-10-07T06:53:59.579Z,17.70
2018-10-07T06:54:59.542Z,17.89
2018-10-07T06:55:59.546Z,17.99
2018-10-07T06:56:59.524Z,18.46
2018-10-07T06:57:59.573Z,18.54
2018-10-07T06:58:59.530Z,18.78
2018-10-07T06:59:59.479Z,19.06
2018-10-07T07:00:59.473Z,19.30
2018-10-07T07:01:59.465Z,19.64
2018-10-07T07:02:59.479Z,19.83
2018-10-07T07:03:59.429Z,20.04
2018-10-07T07:04:59.438Z,20.05
2018-10-07T07:05:59.427Z,19.80
2018-10-07T07:06:59.468Z,19.45
2018-10-07T07:07:59.438Z,19.30
2018-10-07T07:08:59.410Z,19.05
2018-10-07T07:09:59.405Z,18.79
2018-10-07T07:10:59.401Z,18.82
2018-10-07T07:11:59.361Z,18.84
2018-10-07T07:12:59.412Z,18.94
2018-10-07T07:13:59.337Z,18.90
2018-10-07T07:14:59.351Z,18.91
2018-10-07T07:15:59.300Z,18.96
2018-10-07T07:16:59.365Z,18.97
2018-10-07T07:17:59.818Z,19.35
2018-10-07T07:18:59.283Z,19.64
2018-10-07T07:19:59.350Z,19.78
2018-10-07T07:20:59.281Z,19.94
2018-10-07T07:21:59.235Z,20.19
2018-10-07T07:22:59.254Z,20.25
2018-10-07T07:23:59.254Z,20.64
2018-10-07T07:24:59.232Z,21.08
2018-10-07T07:25:59.226Z,21.38
2018-10-07T07:26:59.243Z,21.56
2018-10-07T07:27:59.212Z,21.42
2018-10-07T07:28:59.173Z,21.70
2018-10-07T07:29:59.183Z,21.96
2018-10-07T07:30:59.172Z,22.01
2018-10-07T07:31:59.135Z,22.33
2018-10-07T07:32:59.177Z,22.35
2018-10-07T07:33:59.121Z,22.48
2018-10-07T07:34:59.118Z,22.67
2018-10-07T07:35:59.104Z,22.66
2018-10-07T07:36:59.187Z,22.76
2018-10-07T07:37:59.095Z,22.91
2018-10-07T07:38:59.104Z,22.93
2018-10-07T07:39:59.082Z,23.04
2018-10-07T07:40:59.044Z,23.25
2018-10-07T07:41:59.066Z,23.35
2018-10-07T07:42:59.040Z,23.21
2018-10-07T07:43:59.103Z,22.81
2018-10-07T07:44:59.001Z,22.63
2018-10-07T07:45:59.000Z,22.17
2018-10-07T07:46:58.980Z,22.24
2018-10-07T07:47:58.961Z,22.17
2018-10-07T07:48:59.007Z,22.49
2018-10-07T07:49:58.950Z,22.70
2018-10-07T07:50:58.938Z,22.94
2018-10-07T07:51:58.915Z,23.19
2018-10-07T07:52:58.913Z,23.23
2018-10-07T07:53:58.937Z,23.37
2018-10-07T07:54:58.926Z,23.42
2018-10-07T07:55:58.885Z,23.32
2018-10-07T07:56:58.874Z,23.16
2018-10-07T07:57:58.873Z,23.32
2018-10-07T07:58:58.880Z,23.39
2018-10-07T07:59:58.894Z,23.31
2018-10-07T08:00:58.833Z,23.09
2018-10-07T08:01:58.824Z,23.11
2018-10-07T08:02:58.802Z,23.07
2018-10-07T08:03:58.802Z,23.35
2018-10-07T08:04:58.772Z,23.23
2018-10-07T08:05:58.783Z,23.39
2018-10-07T08:06:58.765Z,23.57
2018-10-07T08:07:58.765Z,23.67
2018-10-07T08:08:58.814Z,23.77
2018-10-07T08:09:58.737Z,23.89
2018-10-07T08:10:58.721Z,24.02
2018-10-07T08:11:58.713Z,24.21
2018-10-07T08:12:58.713Z,24.31
2018-10-07T08:13:58.736Z,24.51
2018-10-07T08:14:58.730Z,24.46
2018-10-07T08:15:58.669Z,23.37
2018-10-07T08:16:58.662Z,22.96
2018-10-07T08:17:58.756Z,22.94
2018-10-07T08:18:58.659Z,23.15
2018-10-07T08:19:58.640Z,23.56
2018-10-07T08:20:58.623Z,23.93
2018-10-07T08:21:58.613Z,24.37
2018-10-07T08:22:58.593Z,24.41
2018-10-07T08:23:58.704Z,23.92
2018-10-07T08:24:58.594Z,23.62
2018-10-07T08:25:58.591Z,23.87
2018-10-07T08:26:58.544Z,23.93
2018-10-07T08:27:58.692Z,24.06
2018-10-07T08:28:58.534Z,24.05
2018-10-07T08:29:58.565Z,23.45
2018-10-07T08:30:58.499Z,23.82
2018-10-07T08:31:58.487Z,23.18
2018-10-07T08:32:58.472Z,22.75
2018-10-07T08:33:58.477Z,22.70
2018-10-07T08:34:58.482Z,22.67
2018-10-07T08:35:58.445Z,22.39
2018-10-07T08:36:58.443Z,22.44
2018-10-07T08:37:58.453Z,22.42
2018-10-07T08:38:58.441Z,22.42
2018-10-07T08:39:58.446Z,22.41
2018-10-07T08:40:58.419Z,22.85
2018-10-07T08:41:58.390Z,23.38
2018-10-07T08:42:58.394Z,23.74
2018-10-07T08:43:58.401Z,23.15
2018-10-07T08:44:58.375Z,23.72
2018-10-07T08:45:58.344Z,24.18
2018-10-07T08:46:58.378Z,24.63
2018-10-07T08:47:58.312Z,25.11
2018-10-07T08:48:58.341Z,25.34
2018-10-07T08:49:58.431Z,25.59
2018-10-07T08:50:58.291Z,25.72
2018-10-07T08:51:58.280Z,25.79
2018-10-07T08:52:58.279Z,26.03
2018-10-07T08:53:58.294Z,25.97
2018-10-07T08:54:58.240Z,25.75
2018-10-07T08:55:58.327Z,25.49
2018-10-07T08:56:58.218Z,25.05
2018-10-07T08:57:58.222Z,25.20
2018-10-07T08:58:58.213Z,24.66
2018-10-07T08:59:58.190Z,24.75
2018-10-07T09:00:58.173Z,24.74
2018-10-07T09:01:58.248Z,24.71
2018-10-07T09:02:58.157Z,25.27
2018-10-07T09:03:58.157Z,25.48
2018-10-07T09:04:58.147Z,25.46
2018-10-07T09:05:58.138Z,25.49
2018-10-07T09:06:58.113Z,25.12
2018-10-07T09:07:58.107Z,25.12
2018-10-07T09:08:58.198Z,25.59
2018-10-07T09:09:58.201Z,25.45
2018-10-07T09:10:58.070Z,25.29
2018-10-07T09:11:58.062Z,25.56
2018-10-07T09:12:58.170Z,25.45
2018-10-07T09:13:58.315Z,25.04
2018-10-07T09:14:58.028Z,25.16
2018-10-07T09:15:58.015Z,25.23
2018-10-07T09:16:58.519Z,25.12
2018-10-07T09:17:58.137Z,24.98
2018-10-07T09:18:58.000Z,24.86
2018-10-07T09:19:57.975Z,24.89
2018-10-07T09:20:58.064Z,24.82
2018-10-07T09:21:57.973Z,25.36
2018-10-07T09:22:57.946Z,24.84
2018-10-07T09:23:57.976Z,24.70
2018-10-07T09:24:57.923Z,24.92
2018-10-07T09:25:57.926Z,25.51
2018-10-07T09:26:58.007Z,25.36
2018-10-07T09:27:57.946Z,24.99
2018-10-07T09:28:57.893Z,24.23
2018-10-07T09:29:57.891Z,24.67
2018-10-07T09:30:57.913Z,25.23
2018-10-07T09:31:57.844Z,25.51
2018-10-07T09:32:57.963Z,25.96
2018-10-07T09:33:57.843Z,26.27
2018-10-07T09:34:57.812Z,26.39
2018-10-07T09:35:57.809Z,26.65
2018-10-07T09:36:57.809Z,26.84
2018-10-07T09:37:57.778Z,26.68
2018-10-07T09:38:57.791Z,26.03
2018-10-07T09:39:57.859Z,25.82
2018-10-07T09:40:57.750Z,26.20
2018-10-07T09:41:57.739Z,26.83
2018-10-07T09:42:57.734Z,26.88
2018-10-07T09:43:57.745Z,26.68
2018-10-07T09:44:57.744Z,26.17
2018-10-07T09:45:57.694Z,25.94
2018-10-07T09:46:57.709Z,26.06
2018-10-07T09:47:57.674Z,26.31
2018-10-07T09:48:57.688Z,26.93
2018-10-07T09:49:57.674Z,27.08
2018-10-07T09:50:57.647Z,27.20
2018-10-07T09:51:57.637Z,27.13
2018-10-07T09:52:57.911Z,27.27
2018-10-07T09:53:57.630Z,27.05
2018-10-07T09:54:57.614Z,26.93
2018-10-07T09:55:57.609Z,26.98
2018-10-07T09:56:57.592Z,26.54
2018-10-07T09:57:57.595Z,26.39
2018-10-07T09:58:57.576Z,26.34
2018-10-07T09:59:57.553Z,26.35
2018-10-07T10:00:57.555Z,26.51
2018-10-07T10:01:57.534Z,26.86
2018-10-07T10:02:57.523Z,27.21
2018-10-07T10:03:57.600Z,27.38
2018-10-07T10:04:57.529Z,27.40
2018-10-07T10:05:57.501Z,27.42
2018-10-07T10:06:57.528Z,27.31
2018-10-07T10:07:57.497Z,27.02
2018-10-07T10:08:57.471Z,26.69
2018-10-07T10:09:57.448Z,26.49
2018-10-07T10:10:57.636Z,26.75
2018-10-07T10:11:57.429Z,27.23
2018-10-07T10:12:57.415Z,27.35
2018-10-07T10:13:57.421Z,27.01
2018-10-07T10:14:57.404Z,26.64
2018-10-07T10:15:57.410Z,26.11
2018-10-07T10:16:57.374Z,25.86
2018-10-07T10:17:57.375Z,26.20
2018-10-07T10:18:57.371Z,26.28
2018-10-07T10:19:57.390Z,26.16
2018-10-07T10:20:57.334Z,26.09
2018-10-07T10:21:57.331Z,25.82
2018-10-07T10:22:57.390Z,26.04
2018-10-07T10:23:57.316Z,26.23
2018-10-07T10:24:57.297Z,26.66
2018-10-07T10:25:57.293Z,27.03
2018-10-07T10:26:57.305Z,26.93
2018-10-07T10:27:57.265Z,27.42
2018-10-07T10:28:57.271Z,27.86
2018-10-07T10:29:57.250Z,27.77
2018-10-07T10:30:57.236Z,27.58
2018-10-07T10:31:57.224Z,26.46
2018-10-07T10:32:57.216Z,25.09
2018-10-07T10:33:57.250Z,24.06
2018-10-07T10:34:57.194Z,22.93
2018-10-07T10:35:57.201Z,22.56
2018-10-07T10:36:57.309Z,22.49
2018-10-07T10:37:57.162Z,23.15
2018-10-07T10:38:57.173Z,24.00
2018-10-07T10:39:57.188Z,23.81
2018-10-07T10:40:57.132Z,23.35
2018-10-07T10:41:57.122Z,23.53
2018-10-07T10:42:57.110Z,23.56
2018-10-07T10:43:57.115Z,23.56
2018-10-07T10:44:57.104Z,23.31
2018-10-07T10:45:57.092Z,23.22
2018-10-07T10:46:57.180Z,23.32
2018-10-07T10:47:57.076Z,23.26
2018-10-07T10:48:57.065Z,23.09
2018-10-07T10:49:57.036Z,23.11
2018-10-07T10:50:57.029Z,23.14
2018-10-07T10:51:57.021Z,23.26
2018-10-07T10:52:57.030Z,23.50
2018-10-07T10:53:57.030Z,23.64
2018-10-07T10:54:57.008Z,23.54
2018-10-07T10:55:56.985Z,23.12
2018-10-07T10:56:56.976Z,22.99
2018-10-07T10:57:57.007Z,22.85
2018-10-07T10:58:56.942Z,22.84
2018-10-07T10:59:56.959Z,22.63
2018-10-07T11:00:56.993Z,22.45
2018-10-07T11:01:56.916Z,22.52
2018-10-07T11:02:56.898Z,22.39
2018-10-07T11:03:56.906Z,22.46
2018-10-07T11:04:56.930Z,22.56
2018-10-07T11:05:56.878Z,22.66
2018-10-07T11:06:56.859Z,22.69
2018-10-07T11:07:56.850Z,22.69
2018-10-07T11:08:56.879Z,22.31
2018-10-07T11:09:57.486Z,22.14
2018-10-07T11:10:56.855Z,22.14
2018-10-07T11:11:56.820Z,22.20
2018-10-07T11:12:56.816Z,22.19
2018-10-07T11:13:56.986Z,21.83
2018-10-07T11:14:56.810Z,21.70
2018-10-07T11:15:56.976Z,21.33
2018-10-07T11:16:56.755Z,21.28
2018-10-07T11:17:56.744Z,21.26
2018-10-07T11:18:56.761Z,21.12
2018-10-07T11:19:56.785Z,21.06
2018-10-07T11:20:56.730Z,21.12
2018-10-07T11:21:56.708Z,21.13
2018-10-07T11:22:56.691Z,21.30
2018-10-07T11:23:57.304Z,21.30
2018-10-07T11:24:56.705Z,21.30
2018-10-07T11:25:56.657Z,21.30
2018-10-07T11:26:56.654Z,21.51
2018-10-07T11:27:56.641Z,22.05
2018-10-07T11:28:56.628Z,22.42
2018-10-07T11:29:56.642Z,22.51
2018-10-07T11:30:56.659Z,22.67
2018-10-07T11:31:56.686Z,23.04
2018-10-07T11:32:56.599Z,23.07
2018-10-07T11:33:56.587Z,23.07
2018-10-07T11:34:56.658Z,22.94
2018-10-07T11:35:56.565Z,23.11
2018-10-07T11:36:56.546Z,23.12
2018-10-07T11:37:56.530Z,22.84
2018-10-07T11:38:56.527Z,22.56
2018-10-07T11:39:56.527Z,22.39
2018-10-07T11:40:56.578Z,22.60
2018-10-07T11:41:56.517Z,22.70
2018-10-07T11:42:56.475Z,22.42
2018-10-07T11:43:56.556Z,22.20
2018-10-07T11:44:56.453Z,22.33
2018-10-07T11:45:56.465Z,22.23
2018-10-07T11:46:56.441Z,22.08
2018-10-07T11:47:56.439Z,22.26
2018-10-07T11:48:56.420Z,22.23
2018-10-07T11:49:56.410Z,22.15
2018-10-07T11:50:56.412Z,22.42
2018-10-07T11:51:56.386Z,22.31
2018-10-07T11:52:56.474Z,22.49
2018-10-07T11:53:56.363Z,22.51
2018-10-07T11:54:56.347Z,22.26
2018-10-07T11:55:56.356Z,22.21
2018-10-07T11:56:56.331Z,22.04
2018-10-07T11:57:56.326Z,21.75
2018-10-07T11:58:56.310Z,21.55
2018-10-07T11:59:56.308Z,21.38
2018-10-07T12:00:56.301Z,21.38
2018-10-07T12:01:56.282Z,21.40
2018-10-07T12:02:56.266Z,21.30
2018-10-07T12:03:56.256Z,21.27
2018-10-07T12:04:56.245Z,21.28
2018-10-07T12:05:56.258Z,21.26
2018-10-07T12:06:56.225Z,21.24
2018-10-07T12:07:56.221Z,21.45
2018-10-07T12:08:56.203Z,21.48
2018-10-07T12:09:56.193Z,21.81
2018-10-07T12:10:56.196Z,21.99
2018-10-07T12:11:56.229Z,22.19
2018-10-07T12:12:56.180Z,22.48
2018-10-07T12:13:56.245Z,22.45
2018-10-07T12:14:56.189Z,22.63
2018-10-07T12:15:56.139Z,22.67
2018-10-07T12:16:56.499Z,22.72
2018-10-07T12:17:56.107Z,22.78
2018-10-07T12:18:56.095Z,22.70
2018-10-07T12:19:56.088Z,22.76
2018-10-07T12:20:56.085Z,22.99
2018-10-07T12:21:56.065Z,22.97
2018-10-07T12:22:56.060Z,23.09
2018-10-07T12:23:56.063Z,23.18
2018-10-07T12:24:56.034Z,23.06
2018-10-07T12:25:56.056Z,23.04
2018-10-07T12:26:56.062Z,23.01
2018-10-07T12:27:56.009Z,23.18
2018-10-07T12:28:56.065Z,22.89
2018-10-07T12:29:55.979Z,22.93
2018-10-07T12:30:55.972Z,22.89
2018-10-07T12:31:55.984Z,22.86
2018-10-07T12:32:55.946Z,22.74
2018-10-07T12:33:55.932Z,22.74
2018-10-07T12:34:55.927Z,22.74
2018-10-07T12:35:55.927Z,22.63
2018-10-07T12:36:55.916Z,22.67
2018-10-07T12:37:55.890Z,22.61
2018-10-07T12:38:55.903Z,22.38
2018-10-07T12:39:55.870Z,22.54
2018-10-07T12:40:55.857Z,22.61
2018-10-07T12:41:55.882Z,22.63
2018-10-07T12:42:55.840Z,22.52
2018-10-07T12:43:55.827Z,22.49
2018-10-07T12:44:55.816Z,22.49
2018-10-07T12:45:55.807Z,22.48
2018-10-07T12:46:55.805Z,22.46
2018-10-07T12:47:55.786Z,22.38
2018-10-07T12:48:55.783Z,22.33
2018-10-07T12:49:55.770Z,22.38
2018-10-07T12:50:55.752Z,22.21
2018-10-07T12:51:55.762Z,22.41
2018-10-07T12:52:55.733Z,22.51